sensor_id;sensor_type;location;lat;lon;timestamp;P1;durP1;ratioP1;P2;durP2;ratioP2
49842;SDS011;55559;48.898;9.184;2023-05-16T00:02:11;16.42;;;13.02;;
49842;SDS011;55559;48.898;9.184;2023-05-16T00:04:38;16.48;;;12.65;;
49842;SDS011;55559;48.898;9.184;2023-05-16T00:07:06;17.35;;;12.90;;
49842;SDS011;55559;48.898;9.184;2023-05-16T00:09:33;18.35;;;13.35;;
49842;SDS011;55559;48.898;9.184;2023-05-16T00:12:01;17.77;;;14.05;;
49842;SDS011;55559;48.898;9.184;2023-05-16T00:14:30;16.13;;;14.18;;
49842;SDS011;55559;48.898;9.184;2023-05-16T00:16:57;20.83;;;13.00;;
49842;SDS011;55559;48.898;9.184;2023-05-16T00:19:25;14.68;;;13.27;;
49842;SDS011;55559;48.898;9.184;2023-05-16T00:21:54;15.57;;;13.05;;
49842;SDS011;55559;48.898;9.184;2023-05-16T00:24:21;21.25;;;13.80;;
49842;SDS011;55559;48.898;9.184;2023-05-16T00:26:49;14.50;;;13.05;;
49842;SDS011;55559;48.898;9.184;2023-05-16T00:29:16;22.25;;;15.68;;
49842;SDS011;55559;48.898;9.184;2023-05-16T00:31:45;24.52;;;19.13;;
49842;SDS011;55559;48.898;9.184;2023-05-16T00:34:13;20.90;;;17.20;;
49842;SDS011;55559;48.898;9.184;2023-05-16T00:36:40;21.52;;;17.48;;
49842;SDS011;55559;48.898;9.184;2023-05-16T00:39:08;19.58;;;16.33;;
49842;SDS011;55559;48.898;9.184;2023-05-16T00:41:36;24.00;;;17.48;;
49842;SDS011;55559;48.898;9.184;2023-05-16T00:44:04;23.55;;;16.50;;
49842;SDS011;55559;48.898;9.184;2023-05-16T00:46:32;24.35;;;17.60;;
49842;SDS011;55559;48.898;9.184;2023-05-16T00:49:01;25.55;;;21.38;;
49842;SDS011;55559;48.898;9.184;2023-05-16T00:51:29;25.25;;;20.42;;
49842;SDS011;55559;48.898;9.184;2023-05-16T00:53:57;30.75;;;22.35;;
49842;SDS011;55559;48.898;9.184;2023-05-16T00:56:24;40.30;;;24.05;;
49842;SDS011;55559;48.898;9.184;2023-05-16T00:58:52;32.30;;;23.20;;
49842;SDS011;55559;48.898;9.184;2023-05-16T01:01:20;35.22;;;22.88;;
49842;SDS011;55559;48.898;9.184;2023-05-16T01:03:52;32.25;;;24.95;;
49842;SDS011;55559;48.898;9.184;2023-05-16T01:06:21;30.48;;;25.17;;
49842;SDS011;55559;48.898;9.184;2023-05-16T01:08:48;33.80;;;27.38;;
49842;SDS011;55559;48.898;9.184;2023-05-16T01:11:17;38.83;;;28.48;;
49842;SDS011;55559;48.898;9.184;2023-05-16T01:13:51;38.58;;;29.05;;
49842;SDS011;55559;48.898;9.184;2023-05-16T01:16:29;40.72;;;28.95;;
49842;SDS011;55559;48.898;9.184;2023-05-16T01:19:06;38.90;;;27.02;;
49842;SDS011;55559;48.898;9.184;2023-05-16T01:21:49;39.45;;;29.52;;
49842;SDS011;55559;48.898;9.184;2023-05-16T01:24:32;37.17;;;28.38;;
49842;SDS011;55559;48.898;9.184;2023-05-16T01:27:02;38.80;;;27.45;;
49842;SDS011;55559;48.898;9.184;2023-05-16T01:29:32;38.67;;;29.30;;
49842;SDS011;55559;48.898;9.184;2023-05-16T01:31:59;41.13;;;31.00;;
49842;SDS011;55559;48.898;9.184;2023-05-16T01:34:27;42.83;;;29.85;;
49842;SDS011;55559;48.898;9.184;2023-05-16T01:36:56;48.63;;;30.58;;
49842;SDS011;55559;48.898;9.184;2023-05-16T01:39:33;39.28;;;28.85;;
49842;SDS011;55559;48.898;9.184;2023-05-16T01:42:12;38.58;;;29.50;;
49842;SDS011;55559;48.898;9.184;2023-05-16T01:44:42;41.13;;;30.60;;
49842;SDS011;55559;48.898;9.184;2023-05-16T01:47:13;42.67;;;30.73;;
49842;SDS011;55559;48.898;9.184;2023-05-16T01:49:44;49.17;;;30.92;;
49842;SDS011;55559;48.898;9.184;2023-05-16T01:52:18;46.80;;;34.08;;
49842;SDS011;55559;48.898;9.184;2023-05-16T01:54:50;50.20;;;35.63;;
49842;SDS011;55559;48.898;9.184;2023-05-16T01:57:21;50.35;;;37.08;;
49842;SDS011;55559;48.898;9.184;2023-05-16T01:59:52;52.80;;;37.35;;
49842;SDS011;55559;48.898;9.184;2023-05-16T02:02:19;54.83;;;37.85;;
49842;SDS011;55559;48.898;9.184;2023-05-16T02:04:47;54.97;;;36.95;;
49842;SDS011;55559;48.898;9.184;2023-05-16T02:07:14;63.85;;;40.00;;
49842;SDS011;55559;48.898;9.184;2023-05-16T02:09:44;57.47;;;39.85;;
49842;SDS011;55559;48.898;9.184;2023-05-16T02:12:11;65.55;;;43.83;;
49842;SDS011;55559;48.898;9.184;2023-05-16T02:14:42;60.03;;;42.53;;
49842;SDS011;55559;48.898;9.184;2023-05-16T02:17:10;69.22;;;43.72;;
49842;SDS011;55559;48.898;9.184;2023-05-16T02:19:37;67.72;;;43.35;;
49842;SDS011;55559;48.898;9.184;2023-05-16T02:22:05;68.40;;;43.63;;
49842;SDS011;55559;48.898;9.184;2023-05-16T02:24:33;60.50;;;43.40;;
49842;SDS011;55559;48.898;9.184;2023-05-16T02:27:00;64.32;;;43.03;;
49842;SDS011;55559;48.898;9.184;2023-05-16T02:29:28;65.85;;;43.58;;
49842;SDS011;55559;48.898;9.184;2023-05-16T02:31:57;63.20;;;43.13;;
49842;SDS011;55559;48.898;9.184;2023-05-16T02:34:24;67.85;;;42.38;;
49842;SDS011;55559;48.898;9.184;2023-05-16T02:36:51;65.72;;;45.00;;
49842;SDS011;55559;48.898;9.184;2023-05-16T02:39:20;61.22;;;44.08;;
49842;SDS011;55559;48.898;9.184;2023-05-16T02:41:49;63.33;;;42.42;;
49842;SDS011;55559;48.898;9.184;2023-05-16T02:44:17;69.80;;;44.40;;
49842;SDS011;55559;48.898;9.184;2023-05-16T02:46:44;70.38;;;45.38;;
49842;SDS011;55559;48.898;9.184;2023-05-16T02:49:13;73.35;;;45.92;;
49842;SDS011;55559;48.898;9.184;2023-05-16T02:51:41;68.28;;;46.95;;
49842;SDS011;55559;48.898;9.184;2023-05-16T02:54:08;73.03;;;45.72;;
49842;SDS011;55559;48.898;9.184;2023-05-16T02:56:36;65.63;;;46.42;;
49842;SDS011;55559;48.898;9.184;2023-05-16T02:59:03;76.40;;;46.63;;
49842;SDS011;55559;48.898;9.184;2023-05-16T03:01:31;77.20;;;47.40;;
49842;SDS011;55559;48.898;9.184;2023-05-16T03:03:58;71.20;;;46.05;;
49842;SDS011;55559;48.898;9.184;2023-05-16T03:06:27;85.43;;;50.10;;
49842;SDS011;55559;48.898;9.184;2023-05-16T03:08:55;88.35;;;46.65;;
49842;SDS011;55559;48.898;9.184;2023-05-16T03:11:23;74.07;;;45.97;;
49842;SDS011;55559;48.898;9.184;2023-05-16T03:13:51;71.70;;;48.88;;
49842;SDS011;55559;48.898;9.184;2023-05-16T03:16:18;78.65;;;46.58;;
49842;SDS011;55559;48.898;9.184;2023-05-16T03:18:46;70.55;;;47.08;;
49842;SDS011;55559;48.898;9.184;2023-05-16T03:21:13;73.70;;;47.25;;
49842;SDS011;55559;48.898;9.184;2023-05-16T03:23:45;78.32;;;48.85;;
49842;SDS011;55559;48.898;9.184;2023-05-16T03:26:12;79.38;;;51.33;;
49842;SDS011;55559;48.898;9.184;2023-05-16T03:28:40;78.82;;;49.53;;
49842;SDS011;55559;48.898;9.184;2023-05-16T03:31:07;74.65;;;50.35;;
49842;SDS011;55559;48.898;9.184;2023-05-16T03:33:35;80.22;;;49.53;;
49842;SDS011;55559;48.898;9.184;2023-05-16T03:36:02;79.43;;;49.08;;
49842;SDS011;55559;48.898;9.184;2023-05-16T03:38:30;87.13;;;50.88;;
49842;SDS011;55559;48.898;9.184;2023-05-16T03:40:59;75.32;;;46.90;;
49842;SDS011;55559;48.898;9.184;2023-05-16T03:43:27;82.30;;;49.67;;
49842;SDS011;55559;48.898;9.184;2023-05-16T03:45:54;87.47;;;52.17;;
49842;SDS011;55559;48.898;9.184;2023-05-16T03:48:22;82.35;;;50.45;;
49842;SDS011;55559;48.898;9.184;2023-05-16T03:50:49;83.18;;;50.47;;
49842;SDS011;55559;48.898;9.184;2023-05-16T03:53:17;88.70;;;52.22;;
49842;SDS011;55559;48.898;9.184;2023-05-16T03:55:44;83.93;;;52.88;;
49842;SDS011;55559;48.898;9.184;2023-05-16T03:58:13;87.32;;;53.72;;
49842;SDS011;55559;48.898;9.184;2023-05-16T04:00:40;82.95;;;51.22;;
49842;SDS011;55559;48.898;9.184;2023-05-16T04:03:10;86.07;;;51.78;;
49842;SDS011;55559;48.898;9.184;2023-05-16T04:05:38;76.65;;;48.97;;
49842;SDS011;55559;48.898;9.184;2023-05-16T04:08:06;83.63;;;51.72;;
49842;SDS011;55559;48.898;9.184;2023-05-16T04:10:33;84.80;;;51.67;;
49842;SDS011;55559;48.898;9.184;2023-05-16T04:13:01;88.32;;;52.50;;
49842;SDS011;55559;48.898;9.184;2023-05-16T04:15:30;89.20;;;52.88;;
49842;SDS011;55559;48.898;9.184;2023-05-16T04:17:57;85.50;;;52.03;;
49842;SDS011;55559;48.898;9.184;2023-05-16T04:20:24;88.22;;;52.75;;
49842;SDS011;55559;48.898;9.184;2023-05-16T04:22:52;91.35;;;54.10;;
49842;SDS011;55559;48.898;9.184;2023-05-16T04:25:19;92.50;;;56.78;;
49842;SDS011;55559;48.898;9.184;2023-05-16T04:27:47;89.40;;;55.42;;
49842;SDS011;55559;48.898;9.184;2023-05-16T04:30:14;90.68;;;55.78;;
49842;SDS011;55559;48.898;9.184;2023-05-16T04:32:43;95.00;;;55.85;;
49842;SDS011;55559;48.898;9.184;2023-05-16T04:35:11;94.75;;;54.13;;
49842;SDS011;55559;48.898;9.184;2023-05-16T04:37:38;85.50;;;51.22;;
49842;SDS011;55559;48.898;9.184;2023-05-16T04:40:06;86.78;;;53.28;;
49842;SDS011;55559;48.898;9.184;2023-05-16T04:42:35;88.63;;;54.67;;
49842;SDS011;55559;48.898;9.184;2023-05-16T04:45:03;95.32;;;56.08;;
49842;SDS011;55559;48.898;9.184;2023-05-16T04:47:35;90.80;;;53.25;;
49842;SDS011;55559;48.898;9.184;2023-05-16T04:50:05;88.13;;;53.13;;
49842;SDS011;55559;48.898;9.184;2023-05-16T04:52:34;82.32;;;50.28;;
49842;SDS011;55559;48.898;9.184;2023-05-16T04:55:02;89.93;;;54.13;;
49842;SDS011;55559;48.898;9.184;2023-05-16T04:57:30;80.35;;;49.40;;
49842;SDS011;55559;48.898;9.184;2023-05-16T04:59:57;82.60;;;50.22;;
49842;SDS011;55559;48.898;9.184;2023-05-16T05:02:25;76.70;;;48.22;;
49842;SDS011;55559;48.898;9.184;2023-05-16T05:04:52;84.25;;;50.55;;
49842;SDS011;55559;48.898;9.184;2023-05-16T05:07:21;79.43;;;49.65;;
49842;SDS011;55559;48.898;9.184;2023-05-16T05:09:52;73.80;;;48.97;;
49842;SDS011;55559;48.898;9.184;2023-05-16T05:12:20;71.72;;;46.85;;
49842;SDS011;55559;48.898;9.184;2023-05-16T05:14:48;84.95;;;49.85;;
49842;SDS011;55559;48.898;9.184;2023-05-16T05:17:16;70.82;;;46.45;;
49842;SDS011;55559;48.898;9.184;2023-05-16T05:19:43;86.35;;;50.72;;
49842;SDS011;55559;48.898;9.184;2023-05-16T05:22:10;77.88;;;48.75;;
49842;SDS011;55559;48.898;9.184;2023-05-16T05:24:39;79.70;;;48.33;;
49842;SDS011;55559;48.898;9.184;2023-05-16T05:27:07;77.55;;;48.03;;
49842;SDS011;55559;48.898;9.184;2023-05-16T05:29:34;71.35;;;46.60;;
49842;SDS011;55559;48.898;9.184;2023-05-16T05:32:02;73.70;;;47.63;;
49842;SDS011;55559;48.898;9.184;2023-05-16T05:34:29;76.45;;;47.70;;
49842;SDS011;55559;48.898;9.184;2023-05-16T05:36:57;77.20;;;49.03;;
49842;SDS011;55559;48.898;9.184;2023-05-16T05:39:25;76.20;;;46.20;;
49842;SDS011;55559;48.898;9.184;2023-05-16T05:41:54;76.60;;;49.13;;
49842;SDS011;55559;48.898;9.184;2023-05-16T05:44:21;73.53;;;48.90;;
49842;SDS011;55559;48.898;9.184;2023-05-16T05:46:49;81.53;;;48.65;;
49842;SDS011;55559;48.898;9.184;2023-05-16T05:49:16;74.95;;;47.42;;
49842;SDS011;55559;48.898;9.184;2023-05-16T05:51:44;77.00;;;47.35;;
49842;SDS011;55559;48.898;9.184;2023-05-16T05:54:11;68.32;;;43.35;;
49842;SDS011;55559;48.898;9.184;2023-05-16T05:56:39;68.70;;;44.88;;
49842;SDS011;55559;48.898;9.184;2023-05-16T05:59:08;64.88;;;42.47;;
49842;SDS011;55559;48.898;9.184;2023-05-16T06:01:35;70.72;;;40.60;;
49842;SDS011;55559;48.898;9.184;2023-05-16T06:04:03;61.13;;;39.35;;
49842;SDS011;55559;48.898;9.184;2023-05-16T06:06:31;52.95;;;36.45;;
49842;SDS011;55559;48.898;9.184;2023-05-16T06:08:59;55.50;;;36.33;;
49842;SDS011;55559;48.898;9.184;2023-05-16T06:11:26;51.65;;;36.03;;
49842;SDS011;55559;48.898;9.184;2023-05-16T06:13:53;48.83;;;33.03;;
49842;SDS011;55559;48.898;9.184;2023-05-16T06:16:24;52.72;;;36.13;;
49842;SDS011;55559;48.898;9.184;2023-05-16T06:18:52;61.65;;;36.65;;
49842;SDS011;55559;48.898;9.184;2023-05-16T06:21:19;56.42;;;34.00;;
49842;SDS011;55559;48.898;9.184;2023-05-16T06:23:47;51.65;;;34.85;;
49842;SDS011;55559;48.898;9.184;2023-05-16T06:26:14;46.65;;;33.55;;
49842;SDS011;55559;48.898;9.184;2023-05-16T06:28:42;54.75;;;34.40;;
49842;SDS011;55559;48.898;9.184;2023-05-16T06:31:09;53.10;;;35.53;;
49842;SDS011;55559;48.898;9.184;2023-05-16T06:33:38;49.08;;;34.03;;
49842;SDS011;55559;48.898;9.184;2023-05-16T06:36:05;43.53;;;31.92;;
49842;SDS011;55559;48.898;9.184;2023-05-16T06:38:33;43.35;;;32.25;;
49842;SDS011;55559;48.898;9.184;2023-05-16T06:41:01;55.47;;;31.60;;
49842;SDS011;55559;48.898;9.184;2023-05-16T06:43:28;43.15;;;29.17;;
49842;SDS011;55559;48.898;9.184;2023-05-16T06:45:55;43.30;;;29.73;;
49842;SDS011;55559;48.898;9.184;2023-05-16T06:48:23;42.08;;;28.50;;
49842;SDS011;55559;48.898;9.184;2023-05-16T06:50:52;38.28;;;27.38;;
49842;SDS011;55559;48.898;9.184;2023-05-16T06:53:19;32.78;;;25.42;;
49842;SDS011;55559;48.898;9.184;2023-05-16T06:55:46;40.00;;;26.90;;
49842;SDS011;55559;48.898;9.184;2023-05-16T06:58:14;41.85;;;25.38;;
49842;SDS011;55559;48.898;9.184;2023-05-16T07:00:42;38.67;;;25.35;;
49842;SDS011;55559;48.898;9.184;2023-05-16T07:03:09;35.20;;;23.70;;
49842;SDS011;55559;48.898;9.184;2023-05-16T07:05:37;33.15;;;22.45;;
49842;SDS011;55559;48.898;9.184;2023-05-16T07:08:07;28.17;;;20.65;;
49842;SDS011;55559;48.898;9.184;2023-05-16T07:10:35;30.05;;;21.65;;
49842;SDS011;55559;48.898;9.184;2023-05-16T07:13:02;31.35;;;20.63;;
49842;SDS011;55559;48.898;9.184;2023-05-16T07:15:30;25.10;;;19.65;;
49842;SDS011;55559;48.898;9.184;2023-05-16T07:17:58;25.85;;;18.67;;
49842;SDS011;55559;48.898;9.184;2023-05-16T07:20:25;27.30;;;18.45;;
49842;SDS011;55559;48.898;9.184;2023-05-16T07:22:53;20.63;;;16.95;;
49842;SDS011;55559;48.898;9.184;2023-05-16T07:25:23;18.48;;;15.90;;
49842;SDS011;55559;48.898;9.184;2023-05-16T07:27:51;18.45;;;15.13;;
49842;SDS011;55559;48.898;9.184;2023-05-16T07:30:18;18.80;;;15.40;;
49842;SDS011;55559;48.898;9.184;2023-05-16T07:32:46;18.38;;;14.85;;
49842;SDS011;55559;48.898;9.184;2023-05-16T07:35:14;17.95;;;14.10;;
49842;SDS011;55559;48.898;9.184;2023-05-16T07:37:41;17.20;;;13.15;;
49842;SDS011;55559;48.898;9.184;2023-05-16T07:40:09;20.38;;;14.40;;
49842;SDS011;55559;48.898;9.184;2023-05-16T07:42:38;19.27;;;14.77;;
49842;SDS011;55559;48.898;9.184;2023-05-16T07:45:06;16.83;;;14.38;;
49842;SDS011;55559;48.898;9.184;2023-05-16T07:47:33;17.20;;;13.63;;
49842;SDS011;55559;48.898;9.184;2023-05-16T07:50:01;19.90;;;13.95;;
49842;SDS011;55559;48.898;9.184;2023-05-16T07:52:29;21.30;;;14.93;;
49842;SDS011;55559;48.898;9.184;2023-05-16T07:54:56;18.05;;;13.38;;
49842;SDS011;55559;48.898;9.184;2023-05-16T07:57:23;13.98;;;12.48;;
49842;SDS011;55559;48.898;9.184;2023-05-16T07:59:53;19.50;;;12.55;;
49842;SDS011;55559;48.898;9.184;2023-05-16T08:02:20;15.30;;;11.60;;
49842;SDS011;55559;48.898;9.184;2023-05-16T08:04:50;16.42;;;12.30;;
49842;SDS011;55559;48.898;9.184;2023-05-16T08:07:18;12.10;;;10.90;;
49842;SDS011;55559;48.898;9.184;2023-05-16T08:09:45;13.43;;;11.90;;
49842;SDS011;55559;48.898;9.184;2023-05-16T08:12:13;17.02;;;14.55;;
49842;SDS011;55559;48.898;9.184;2023-05-16T08:14:41;18.73;;;14.35;;
49842;SDS011;55559;48.898;9.184;2023-05-16T08:17:09;17.02;;;15.13;;
49842;SDS011;55559;48.898;9.184;2023-05-16T08:19:37;19.67;;;14.75;;
49842;SDS011;55559;48.898;9.184;2023-05-16T08:22:05;19.65;;;15.50;;
49842;SDS011;55559;48.898;9.184;2023-05-16T08:24:33;26.15;;;18.90;;
49842;SDS011;55559;48.898;9.184;2023-05-16T08:27:00;23.98;;;17.50;;
49842;SDS011;55559;48.898;9.184;2023-05-16T08:29:28;28.30;;;18.52;;
49842;SDS011;55559;48.898;9.184;2023-05-16T08:31:56;25.83;;;18.50;;
49842;SDS011;55559;48.898;9.184;2023-05-16T08:34:25;35.83;;;19.58;;
49842;SDS011;55559;48.898;9.184;2023-05-16T08:36:52;22.75;;;19.33;;
49842;SDS011;55559;48.898;9.184;2023-05-16T08:39:20;26.92;;;20.02;;
49842;SDS011;55559;48.898;9.184;2023-05-16T08:41:47;33.85;;;22.55;;
49842;SDS011;55559;48.898;9.184;2023-05-16T08:44:15;29.98;;;20.42;;
49842;SDS011;55559;48.898;9.184;2023-05-16T08:46:47;31.75;;;22.42;;
49842;SDS011;55559;48.898;9.184;2023-05-16T08:49:17;25.00;;;20.95;;
49842;SDS011;55559;48.898;9.184;2023-05-16T08:51:47;32.53;;;22.45;;
49842;SDS011;55559;48.898;9.184;2023-05-16T08:54:17;31.85;;;23.05;;
49842;SDS011;55559;48.898;9.184;2023-05-16T08:56:44;34.17;;;24.30;;
49842;SDS011;55559;48.898;9.184;2023-05-16T08:59:14;33.33;;;24.15;;
49842;SDS011;55559;48.898;9.184;2023-05-16T09:01:42;37.67;;;26.05;;
49842;SDS011;55559;48.898;9.184;2023-05-16T09:04:10;38.70;;;27.05;;
49842;SDS011;55559;48.898;9.184;2023-05-16T09:06:37;36.45;;;26.45;;
49842;SDS011;55559;48.898;9.184;2023-05-16T09:09:07;41.00;;;28.98;;
49842;SDS011;55559;48.898;9.184;2023-05-16T09:11:37;42.33;;;29.00;;
49842;SDS011;55559;48.898;9.184;2023-05-16T09:14:04;43.97;;;29.77;;
49842;SDS011;55559;48.898;9.184;2023-05-16T09:16:32;41.55;;;29.58;;
49842;SDS011;55559;48.898;9.184;2023-05-16T09:19:00;38.05;;;28.00;;
49842;SDS011;55559;48.898;9.184;2023-05-16T09:21:29;39.75;;;27.02;;
49842;SDS011;55559;48.898;9.184;2023-05-16T09:24:03;44.65;;;28.05;;
49842;SDS011;55559;48.898;9.184;2023-05-16T09:26:33;40.90;;;29.10;;
49842;SDS011;55559;48.898;9.184;2023-05-16T09:29:02;35.03;;;26.70;;
49842;SDS011;55559;48.898;9.184;2023-05-16T09:31:37;33.95;;;26.55;;
49842;SDS011;55559;48.898;9.184;2023-05-16T09:34:06;34.38;;;26.05;;
49842;SDS011;55559;48.898;9.184;2023-05-16T09:36:35;39.35;;;26.85;;
49842;SDS011;55559;48.898;9.184;2023-05-16T09:39:02;37.10;;;26.77;;
49842;SDS011;55559;48.898;9.184;2023-05-16T09:41:33;38.58;;;25.90;;
49842;SDS011;55559;48.898;9.184;2023-05-16T09:44:02;36.53;;;27.15;;
49842;SDS011;55559;48.898;9.184;2023-05-16T09:46:32;40.53;;;28.25;;
49842;SDS011;55559;48.898;9.184;2023-05-16T09:49:00;40.45;;;26.55;;
49842;SDS011;55559;48.898;9.184;2023-05-16T09:51:28;38.00;;;25.65;;
49842;SDS011;55559;48.898;9.184;2023-05-16T09:53:57;37.60;;;24.77;;
49842;SDS011;55559;48.898;9.184;2023-05-16T09:56:25;35.00;;;24.65;;
49842;SDS011;55559;48.898;9.184;2023-05-16T09:58:54;32.72;;;24.15;;
49842;SDS011;55559;48.898;9.184;2023-05-16T10:01:21;37.35;;;24.10;;
49842;SDS011;55559;48.898;9.184;2023-05-16T10:03:49;35.17;;;22.98;;
49842;SDS011;55559;48.898;9.184;2023-05-16T10:06:17;32.22;;;22.42;;
49842;SDS011;55559;48.898;9.184;2023-05-16T10:08:45;30.48;;;21.15;;
49842;SDS011;55559;48.898;9.184;2023-05-16T10:11:13;32.10;;;21.92;;
49842;SDS011;55559;48.898;9.184;2023-05-16T10:13:42;28.75;;;21.38;;
49842;SDS011;55559;48.898;9.184;2023-05-16T10:16:16;28.75;;;21.58;;
49842;SDS011;55559;48.898;9.184;2023-05-16T10:18:47;32.23;;;19.67;;
49842;SDS011;55559;48.898;9.184;2023-05-16T10:21:16;26.48;;;19.30;;
49842;SDS011;55559;48.898;9.184;2023-05-16T10:23:47;26.92;;;20.35;;
49842;SDS011;55559;48.898;9.184;2023-05-16T10:26:15;27.73;;;19.88;;
49842;SDS011;55559;48.898;9.184;2023-05-16T10:28:43;27.65;;;19.17;;
49842;SDS011;55559;48.898;9.184;2023-05-16T10:31:11;27.92;;;21.10;;
49842;SDS011;55559;48.898;9.184;2023-05-16T10:33:41;28.20;;;19.58;;
49842;SDS011;55559;48.898;9.184;2023-05-16T10:36:09;25.95;;;18.88;;
49842;SDS011;55559;48.898;9.184;2023-05-16T10:38:37;24.70;;;18.50;;
49842;SDS011;55559;48.898;9.184;2023-05-16T10:41:06;26.02;;;18.52;;
49842;SDS011;55559;48.898;9.184;2023-05-16T10:43:34;25.65;;;18.08;;
49842;SDS011;55559;48.898;9.184;2023-05-16T10:46:02;25.05;;;18.38;;
49842;SDS011;55559;48.898;9.184;2023-05-16T10:48:32;25.27;;;17.77;;
49842;SDS011;55559;48.898;9.184;2023-05-16T10:51:02;23.98;;;16.83;;
49842;SDS011;55559;48.898;9.184;2023-05-16T10:53:43;27.48;;;15.50;;
49842;SDS011;55559;48.898;9.184;2023-05-16T10:56:11;23.45;;;16.02;;
49842;SDS011;55559;48.898;9.184;2023-05-16T10:58:42;17.88;;;13.50;;
49842;SDS011;55559;48.898;9.184;2023-05-16T11:01:13;18.60;;;12.70;;
49842;SDS011;55559;48.898;9.184;2023-05-16T11:06:30;16.55;;;10.65;;
49842;SDS011;55559;48.898;9.184;2023-05-16T11:09:06;17.85;;;9.52;;
49842;SDS011;55559;48.898;9.184;2023-05-16T11:11:38;18.77;;;8.75;;
49842;SDS011;55559;48.898;9.184;2023-05-16T11:14:07;16.13;;;9.27;;
49842;SDS011;55559;48.898;9.184;2023-05-16T11:16:34;13.75;;;9.52;;
49842;SDS011;55559;48.898;9.184;2023-05-16T11:19:05;15.60;;;7.97;;
49842;SDS011;55559;48.898;9.184;2023-05-16T11:24:52;10.35;;;8.40;;
49842;SDS011;55559;48.898;9.184;2023-05-16T11:27:22;14.70;;;8.70;;
49842;SDS011;55559;48.898;9.184;2023-05-16T11:29:51;8.90;;;6.70;;
49842;SDS011;55559;48.898;9.184;2023-05-16T11:32:21;10.68;;;7.55;;
49842;SDS011;55559;48.898;9.184;2023-05-16T11:34:49;9.50;;;7.20;;
49842;SDS011;55559;48.898;9.184;2023-05-16T11:37:19;15.15;;;8.43;;
49842;SDS011;55559;48.898;9.184;2023-05-16T11:39:47;9.30;;;7.68;;
49842;SDS011;55559;48.898;9.184;2023-05-16T11:42:16;11.68;;;6.80;;
49842;SDS011;55559;48.898;9.184;2023-05-16T11:44:43;13.80;;;7.18;;
49842;SDS011;55559;48.898;9.184;2023-05-16T11:47:11;27.38;;;7.70;;
49842;SDS011;55559;48.898;9.184;2023-05-16T11:49:38;12.57;;;6.18;;
49842;SDS011;55559;48.898;9.184;2023-05-16T11:52:06;14.65;;;7.03;;
49842;SDS011;55559;48.898;9.184;2023-05-16T11:54:35;9.88;;;6.25;;
49842;SDS011;55559;48.898;9.184;2023-05-16T11:57:03;10.13;;;5.78;;
49842;SDS011;55559;48.898;9.184;2023-05-16T11:59:32;5.65;;;4.32;;
49842;SDS011;55559;48.898;9.184;2023-05-16T12:02:02;11.45;;;5.32;;
49842;SDS011;55559;48.898;9.184;2023-05-16T12:04:31;15.73;;;4.95;;
49842;SDS011;55559;48.898;9.184;2023-05-16T12:06:58;3.95;;;3.22;;
49842;SDS011;55559;48.898;9.184;2023-05-16T12:09:27;2.97;;;2.45;;
49842;SDS011;55559;48.898;9.184;2023-05-16T12:11:54;3.88;;;2.40;;
49842;SDS011;55559;48.898;9.184;2023-05-16T12:14:23;3.00;;;2.40;;
49842;SDS011;55559;48.898;9.184;2023-05-16T12:16:52;2.10;;;1.90;;
49842;SDS011;55559;48.898;9.184;2023-05-16T12:19:20;5.28;;;2.22;;
49842;SDS011;55559;48.898;9.184;2023-05-16T12:21:51;3.50;;;2.55;;
49842;SDS011;55559;48.898;9.184;2023-05-16T12:24:19;4.20;;;2.28;;
49842;SDS011;55559;48.898;9.184;2023-05-16T12:26:47;7.03;;;2.67;;
49842;SDS011;55559;48.898;9.184;2023-05-16T12:29:15;2.45;;;1.88;;
49842;SDS011;55559;48.898;9.184;2023-05-16T12:31:42;6.78;;;1.90;;
49842;SDS011;55559;48.898;9.184;2023-05-16T12:34:18;2.25;;;1.55;;
49842;SDS011;55559;48.898;9.184;2023-05-16T12:36:49;3.88;;;0.82;;
49842;SDS011;55559;48.898;9.184;2023-05-16T12:39:18;4.00;;;0.93;;
49842;SDS011;55559;48.898;9.184;2023-05-16T12:41:47;1.35;;;0.80;;
49842;SDS011;55559;48.898;9.184;2023-05-16T12:44:15;2.42;;;1.27;;
49842;SDS011;55559;48.898;9.184;2023-05-16T12:46:44;4.03;;;0.80;;
49842;SDS011;55559;48.898;9.184;2023-05-16T12:49:13;1.80;;;0.80;;
49842;SDS011;55559;48.898;9.184;2023-05-16T12:51:48;2.45;;;0.70;;
49842;SDS011;55559;48.898;9.184;2023-05-16T12:54:16;3.97;;;0.80;;
49842;SDS011;55559;48.898;9.184;2023-05-16T12:56:44;6.00;;;0.60;;
49842;SDS011;55559;48.898;9.184;2023-05-16T12:59:12;2.65;;;1.30;;
49842;SDS011;55559;48.898;9.184;2023-05-16T13:01:39;6.32;;;0.70;;
49842;SDS011;55559;48.898;9.184;2023-05-16T13:04:09;2.08;;;0.93;;
49842;SDS011;55559;48.898;9.184;2023-05-16T13:06:40;2.17;;;0.70;;
49842;SDS011;55559;48.898;9.184;2023-05-16T13:09:09;2.78;;;1.00;;
49842;SDS011;55559;48.898;9.184;2023-05-16T13:11:37;1.40;;;0.60;;
49842;SDS011;55559;48.898;9.184;2023-05-16T13:14:04;9.23;;;0.63;;
49842;SDS011;55559;48.898;9.184;2023-05-16T13:16:32;2.55;;;0.57;;
49842;SDS011;55559;48.898;9.184;2023-05-16T13:18:59;7.85;;;0.90;;
49842;SDS011;55559;48.898;9.184;2023-05-16T13:21:28;3.40;;;0.63;;
49842;SDS011;55559;48.898;9.184;2023-05-16T13:23:56;3.45;;;0.50;;
49842;SDS011;55559;48.898;9.184;2023-05-16T13:26:25;1.48;;;0.68;;
49842;SDS011;55559;48.898;9.184;2023-05-16T13:28:53;3.63;;;0.65;;
49842;SDS011;55559;48.898;9.184;2023-05-16T13:31:20;1.77;;;0.60;;
49842;SDS011;55559;48.898;9.184;2023-05-16T13:33:48;3.67;;;0.50;;
49842;SDS011;55559;48.898;9.184;2023-05-16T13:36:15;12.18;;;0.88;;
49842;SDS011;55559;48.898;9.184;2023-05-16T13:38:43;3.53;;;0.70;;
49842;SDS011;55559;48.898;9.184;2023-05-16T13:41:10;2.90;;;0.40;;
49842;SDS011;55559;48.898;9.184;2023-05-16T13:43:39;1.50;;;0.40;;
49842;SDS011;55559;48.898;9.184;2023-05-16T13:46:07;2.13;;;0.60;;
49842;SDS011;55559;48.898;9.184;2023-05-16T13:48:34;2.92;;;0.60;;
49842;SDS011;55559;48.898;9.184;2023-05-16T13:51:02;2.47;;;0.50;;
49842;SDS011;55559;48.898;9.184;2023-05-16T13:53:29;5.28;;;0.68;;
49842;SDS011;55559;48.898;9.184;2023-05-16T13:55:57;3.70;;;0.60;;
49842;SDS011;55559;48.898;9.184;2023-05-16T13:58:24;1.92;;;0.80;;
49842;SDS011;55559;48.898;9.184;2023-05-16T14:00:53;3.03;;;0.60;;
49842;SDS011;55559;48.898;9.184;2023-05-16T14:03:21;2.25;;;0.70;;
49842;SDS011;55559;48.898;9.184;2023-05-16T14:05:48;2.10;;;0.88;;
49842;SDS011;55559;48.898;9.184;2023-05-16T14:08:19;3.95;;;0.50;;
49842;SDS011;55559;48.898;9.184;2023-05-16T14:10:46;1.17;;;0.60;;
49842;SDS011;55559;48.898;9.184;2023-05-16T14:13:14;5.80;;;0.77;;
49842;SDS011;55559;48.898;9.184;2023-05-16T14:15:40;2.83;;;0.55;;
49842;SDS011;55559;48.898;9.184;2023-05-16T14:18:09;8.32;;;0.55;;
49842;SDS011;55559;48.898;9.184;2023-05-16T14:20:37;1.73;;;0.55;;
49842;SDS011;55559;48.898;9.184;2023-05-16T14:23:05;2.72;;;0.50;;
49842;SDS011;55559;48.898;9.184;2023-05-16T14:25:32;1.67;;;0.47;;
49842;SDS011;55559;48.898;9.184;2023-05-16T14:28:00;5.50;;;0.50;;
49842;SDS011;55559;48.898;9.184;2023-05-16T14:30:28;2.78;;;0.50;;
49842;SDS011;55559;48.898;9.184;2023-05-16T14:32:56;1.55;;;0.40;;
49842;SDS011;55559;48.898;9.184;2023-05-16T14:35:25;1.63;;;0.40;;
49842;SDS011;55559;48.898;9.184;2023-05-16T14:37:53;2.05;;;0.47;;
49842;SDS011;55559;48.898;9.184;2023-05-16T14:40:21;1.33;;;0.30;;